createdAt,value
2022-07-30T00:01:17.607Z,100.00
2022-07-30T00:04:19.207Z,100.00
2022-07-30T00:07:20.667Z,100.00
2022-07-30T00:10:23.108Z,100.00
2022-07-30T00:16:26.159Z,100.00
2022-07-30T00:19:27.776Z,100.00
2022-07-30T00:22:30.556Z,100.00
2022-07-30T00:25:32.488Z,100.00
2022-07-30T00:28:33.962Z,100.00
2022-07-30T00:31:35.435Z,100.00
2022-07-30T00:34:37.174Z,100.00
2022-07-30T00:37:39.100Z,100.00
2022-07-30T00:40:40.973Z,100.00
2022-07-30T00:43:43.305Z,100.00
2022-07-30T00:46:44.745Z,100.00
2022-07-30T00:49:46.841Z,100.00
2022-07-30T00:52:48.309Z,100.00
2022-07-30T00:55:49.898Z,100.00
2022-07-30T00:58:51.366Z,100.00
2022-07-30T01:01:53.490Z,100.00
2022-07-30T01:04:54.980Z,100.00
2022-07-30T01:07:56.608Z,100.00
2022-07-30T01:10:58.108Z,100.00
2022-07-30T01:13:59.624Z,100.00
2022-07-30T01:17:01.605Z,100.00
2022-07-30T01:20:11.005Z,100.00
2022-07-30T01:23:27.848Z,100.00
2022-07-30T01:26:32.021Z,100.00
2022-07-30T01:29:35.006Z,100.00
2022-07-30T01:32:42.069Z,100.00
2022-07-30T01:35:46.278Z,100.00
2022-07-30T01:38:51.259Z,100.00
2022-07-30T01:41:58.002Z,100.00
2022-07-30T01:45:00.751Z,100.00
2022-07-30T01:48:05.472Z,100.00
2022-07-30T01:51:08.217Z,100.00
2022-07-30T01:54:12.668Z,100.00
2022-07-30T01:57:15.793Z,100.00
2022-07-30T02:00:18.128Z,100.00
2022-07-30T02:03:19.608Z,100.00
2022-07-30T02:06:32.940Z,100.00
2022-07-30T02:09:45.589Z,100.00
2022-07-30T02:12:51.920Z,100.00
2022-07-30T02:16:18.390Z,100.00
2022-07-30T02:19:22.151Z,100.00
2022-07-30T02:22:25.999Z,100.00
2022-07-30T02:25:28.950Z,100.00
2022-07-30T02:28:32.719Z,100.00
2022-07-30T02:31:37.032Z,100.00
2022-07-30T02:34:41.578Z,100.00
2022-07-30T02:37:46.933Z,100.00
2022-07-30T02:40:49.617Z,100.00
2022-07-30T02:43:53.261Z,100.00
2022-07-30T02:46:57.568Z,100.00
2022-07-30T02:50:00.710Z,100.00
2022-07-30T02:53:05.204Z,100.00
2022-07-30T02:56:09.450Z,100.00
2022-07-30T02:59:12.267Z,100.00
2022-07-30T03:02:14.770Z,100.00
2022-07-30T03:05:16.393Z,100.00
2022-07-30T03:08:19.856Z,100.00
2022-07-30T03:11:23.961Z,100.00
2022-07-30T03:14:25.476Z,100.00
2022-07-30T03:17:31.643Z,100.00
2022-07-30T03:20:35.393Z,100.00
2022-07-30T03:23:37.974Z,100.00
2022-07-30T03:26:40.238Z,100.00
2022-07-30T03:29:42.802Z,100.00
2022-07-30T03:32:45.255Z,100.00
2022-07-30T03:35:47.593Z,100.00
2022-07-30T03:38:50.060Z,100.00
2022-07-30T03:41:53.749Z,100.00
2022-07-30T03:44:57.321Z,100.00
2022-07-30T03:47:59.198Z,100.00
2022-07-30T03:51:03.967Z,100.00
2022-07-30T03:54:13.191Z,100.00
2022-07-30T03:57:17.696Z,100.00
2022-07-30T04:00:22.238Z,100.00
2022-07-30T04:03:27.976Z,100.00
2022-07-30T04:06:29.457Z,100.00
2022-07-30T04:09:30.951Z,100.00
2022-07-30T04:12:32.747Z,100.00
2022-07-30T04:16:37.718Z,100.00
2022-07-30T04:19:09.466Z,100.00
2022-07-30T04:22:13.084Z,100.00
2022-07-30T04:25:24.188Z,100.00
2022-07-30T04:28:27.671Z,100.00
2022-07-30T04:31:37.421Z,100.00
2022-07-30T04:34:47.142Z,100.00
2022-07-30T04:37:48.592Z,100.00
2022-07-30T04:40:50.063Z,100.00
2022-07-30T04:43:52.246Z,100.00
2022-07-30T04:46:53.888Z,100.00
2022-07-30T04:49:56.381Z,100.00
2022-07-30T04:52:59.128Z,100.00
2022-07-30T04:56:02.386Z,100.00
2022-07-30T04:59:05.320Z,100.00
2022-07-30T05:02:08.501Z,100.00
2022-07-30T05:05:12.529Z,100.00
2022-07-30T05:08:14.436Z,100.00
2022-07-30T05:11:16.192Z,100.00
2022-07-30T05:14:17.676Z,100.00
2022-07-30T05:17:19.214Z,100.00
2022-07-30T05:20:20.643Z,100.00
2022-07-30T05:23:23.338Z,100.00
2022-07-30T05:26:27.594Z,100.00
2022-07-30T05:29:29.413Z,100.00
2022-07-30T05:32:31.569Z,100.00
2022-07-30T05:35:33.893Z,100.00
2022-07-30T05:38:35.841Z,100.00
2022-07-30T05:41:37.277Z,100.00
2022-07-30T05:44:38.709Z,100.00
2022-07-30T05:47:40.093Z,100.00
2022-07-30T05:50:41.542Z,100.00
2022-07-30T05:53:45.080Z,100.00
2022-07-30T05:56:46.551Z,100.00
2022-07-30T05:59:49.870Z,100.00
2022-07-30T06:02:51.359Z,100.00
2022-07-30T06:05:52.812Z,100.00
2022-07-30T06:08:56.653Z,100.00
2022-07-30T06:11:58.082Z,100.00
2022-07-30T06:14:59.645Z,100.00
2022-07-30T06:18:01.917Z,100.00
2022-07-30T06:21:03.895Z,100.00
2022-07-30T06:24:05.615Z,100.00
2022-07-30T06:27:07.070Z,100.00
2022-07-30T06:30:09.948Z,100.00
2022-07-30T06:33:12.277Z,100.00
2022-07-30T06:36:14.469Z,100.00
2022-07-30T06:39:53.798Z,100.00
2022-07-30T06:42:39.249Z,100.00
2022-07-30T06:45:41.019Z,100.00
2022-07-30T06:48:42.859Z,100.00
2022-07-30T06:51:45.979Z,100.00
2022-07-30T06:54:50.496Z,100.00
2022-07-30T06:57:52.121Z,100.00
2022-07-30T07:00:53.648Z,100.00
2022-07-30T07:03:57.546Z,100.00
2022-07-30T07:06:59.532Z,100.00
2022-07-30T07:10:13.563Z,100.00
2022-07-30T07:13:15.346Z,100.00
2022-07-30T07:16:16.940Z,100.00
2022-07-30T07:20:00.020Z,100.00
2022-07-30T07:22:39.982Z,100.00
2022-07-30T07:25:43.302Z,100.00
2022-07-30T07:28:44.735Z,100.00
2022-07-30T07:32:06.112Z,100.00
2022-07-30T07:35:08.126Z,100.00
2022-07-30T07:38:09.572Z,100.00
2022-07-30T07:41:11.017Z,100.00
2022-07-30T07:44:12.496Z,100.00
2022-07-30T07:47:14.336Z,100.00
2022-07-30T07:50:18.191Z,100.00
2022-07-30T07:53:19.706Z,100.00
2022-07-30T07:56:21.211Z,100.00
2022-07-30T07:59:23.397Z,100.00
2022-07-30T08:02:28.577Z,100.00
2022-07-30T08:06:00.848Z,98.63
2022-07-30T08:08:51.563Z,100.00
2022-07-30T08:11:53.166Z,100.00
2022-07-30T08:14:54.733Z,100.00
2022-07-30T08:17:56.182Z,100.00
2022-07-30T08:20:57.633Z,100.00
2022-07-30T08:23:59.148Z,97.06
2022-07-30T08:27:00.809Z,98.04
2022-07-30T08:30:05.351Z,95.79
2022-07-30T08:33:06.849Z,99.13
2022-07-30T08:36:09.639Z,91.61
2022-07-30T08:39:11.576Z,89.83
2022-07-30T08:42:14.543Z,88.55
2022-07-30T08:45:17.622Z,91.63
2022-07-30T08:48:21.502Z,86.76
2022-07-30T08:51:23.866Z,84.57
2022-07-30T08:54:25.572Z,80.46
2022-07-30T08:57:30.701Z,79.18
2022-07-30T09:00:32.181Z,90.85
2022-07-30T09:03:34.384Z,81.08
2022-07-30T09:06:36.416Z,88.68
2022-07-30T09:09:37.942Z,79.95
2022-07-30T09:12:39.656Z,86.43
2022-07-30T09:15:41.274Z,74.14
2022-07-30T09:18:46.614Z,69.14
2022-07-30T09:22:01.507Z,67.66
2022-07-30T09:25:03.157Z,66.20
2022-07-30T09:28:15.870Z,63.71
2022-07-30T09:31:20.153Z,60.76
2022-07-30T09:34:33.796Z,60.10
2022-07-30T09:37:35.906Z,62.35
2022-07-30T09:40:37.651Z,63.10
2022-07-30T09:43:47.306Z,62.41
2022-07-30T09:46:51.536Z,59.29
2022-07-30T09:50:07.313Z,59.66
2022-07-30T09:53:09.855Z,56.93
2022-07-30T09:56:25.509Z,57.34
2022-07-30T09:59:27.962Z,61.68
2022-07-30T10:02:36.682Z,57.35
2022-07-30T10:05:38.494Z,63.75
2022-07-30T10:08:46.243Z,61.23
2022-07-30T10:11:49.542Z,60.87
2022-07-30T10:14:53.602Z,59.76
2022-07-30T10:17:56.107Z,56.69
2022-07-30T10:20:58.739Z,56.03
2022-07-30T10:24:01.641Z,57.18
2022-07-30T10:27:06.216Z,55.64
2022-07-30T10:30:08.344Z,54.15
2022-07-30T10:33:34.929Z,54.70
2022-07-30T10:36:37.768Z,48.90
2022-07-30T10:39:47.411Z,47.01
2022-07-30T10:43:17.405Z,48.86
2022-07-30T10:46:38.263Z,46.27
2022-07-30T10:49:43.260Z,46.56
2022-07-30T10:52:53.785Z,45.45
2022-07-30T10:56:11.205Z,44.64
2022-07-30T10:59:12.810Z,46.46
2022-07-30T11:02:18.406Z,46.09
2022-07-30T11:05:27.129Z,43.72
2022-07-30T11:08:48.465Z,41.64
2022-07-30T11:12:02.254Z,40.41
2022-07-30T11:15:18.486Z,42.16
2022-07-30T11:18:21.480Z,41.20
2022-07-30T11:21:26.541Z,40.81
2022-07-30T11:24:48.955Z,40.63
2022-07-30T11:27:50.934Z,39.35
2022-07-30T11:30:53.715Z,38.31
2022-07-30T11:34:18.056Z,39.48
2022-07-30T11:37:22.116Z,39.30
2022-07-30T11:40:28.631Z,39.40
2022-07-30T11:43:36.855Z,40.27
2022-07-30T11:46:48.683Z,38.21
2022-07-30T11:49:50.117Z,37.24
2022-07-30T11:52:57.477Z,39.57
2022-07-30T11:56:00.927Z,38.61
2022-07-30T11:59:07.784Z,38.79
2022-07-30T12:02:09.249Z,40.60
2022-07-30T12:05:11.316Z,38.10
2022-07-30T12:08:33.451Z,38.45
2022-07-30T12:11:37.167Z,39.24
2022-07-30T12:14:42.002Z,39.29
2022-07-30T12:17:44.795Z,38.86
2022-07-30T12:20:53.913Z,40.35
2022-07-30T12:24:00.619Z,38.87
2022-07-30T12:27:06.463Z,40.10
2022-07-30T12:30:11.509Z,38.39
2022-07-30T12:33:14.197Z,38.32
2022-07-30T12:36:33.047Z,37.53
2022-07-30T12:39:34.513Z,37.34
2022-07-30T12:42:36.432Z,37.97
2022-07-30T12:45:52.060Z,39.43
2022-07-30T12:49:16.089Z,40.23
2022-07-30T12:52:28.433Z,39.46
2022-07-30T12:55:36.443Z,37.82
2022-07-30T12:58:38.340Z,37.48
2022-07-30T13:01:45.750Z,38.92
2022-07-30T13:05:11.107Z,35.50
2022-07-30T13:08:13.568Z,35.64
2022-07-30T13:11:16.289Z,37.09
2022-07-30T13:14:17.807Z,35.43
2022-07-30T13:17:19.300Z,35.22
2022-07-30T13:20:21.081Z,34.30
2022-07-30T13:23:23.536Z,33.23
2022-07-30T13:26:25.061Z,34.15
2022-07-30T13:29:26.512Z,35.18
2022-07-30T13:32:28.051Z,33.36
2022-07-30T13:35:29.542Z,31.80
2022-07-30T13:38:31.244Z,31.61
2022-07-30T13:41:34.062Z,30.97
2022-07-30T13:44:38.432Z,32.10
2022-07-30T13:47:39.944Z,30.33
2022-07-30T13:50:42.460Z,30.73
2022-07-30T13:53:43.927Z,31.07
2022-07-30T13:56:45.392Z,31.58
2022-07-30T13:59:46.843Z,30.90
2022-07-30T14:02:48.442Z,29.98
2022-07-30T14:05:49.898Z,31.00
2022-07-30T14:08:51.467Z,27.90
2022-07-30T14:11:54.099Z,28.68
2022-07-30T14:14:55.658Z,29.52
2022-07-30T14:17:58.165Z,28.08
2022-07-30T14:21:00.419Z,27.50
2022-07-30T14:24:01.881Z,26.80
2022-07-30T14:27:05.683Z,28.75
2022-07-30T14:30:09.426Z,28.52
2022-07-30T14:33:11.283Z,27.45
2022-07-30T14:36:12.880Z,29.74
2022-07-30T14:39:14.738Z,29.13
2022-07-30T14:42:17.089Z,26.90
2022-07-30T14:45:18.914Z,28.05
2022-07-30T14:48:20.513Z,28.21
2022-07-30T14:51:26.306Z,29.09
2022-07-30T14:54:28.654Z,29.28
2022-07-30T14:57:30.203Z,28.09
2022-07-30T15:00:35.665Z,30.14
2022-07-30T15:03:50.599Z,28.92
2022-07-30T15:06:52.262Z,30.12
2022-07-30T15:09:54.376Z,29.51
2022-07-30T15:12:56.843Z,29.03
2022-07-30T15:15:59.488Z,30.61
2022-07-30T15:19:00.938Z,29.25
2022-07-30T15:22:03.388Z,30.06
2022-07-30T15:25:07.996Z,30.31
2022-07-30T15:28:09.445Z,29.51
2022-07-30T15:31:10.900Z,30.88
2022-07-30T15:34:12.544Z,30.91
2022-07-30T15:37:15.438Z,28.73
2022-07-30T15:40:17.305Z,30.24
2022-07-30T15:43:18.803Z,31.03
2022-07-30T15:46:20.322Z,31.09
2022-07-30T15:49:22.149Z,31.51
2022-07-30T15:52:23.884Z,29.94
2022-07-30T15:55:25.436Z,29.22
2022-07-30T15:58:27.577Z,30.72
2022-07-30T16:01:29.141Z,30.11
2022-07-30T16:04:32.899Z,30.60
2022-07-30T16:07:34.375Z,30.43
2022-07-30T16:10:35.866Z,30.87
2022-07-30T16:13:38.245Z,30.01
2022-07-30T16:16:39.651Z,29.99
2022-07-30T16:19:44.719Z,30.61
2022-07-30T16:22:47.390Z,30.81
2022-07-30T16:25:48.841Z,29.88
2022-07-30T16:28:50.873Z,30.30
2022-07-30T16:31:52.621Z,30.42
2022-07-30T16:34:54.278Z,30.82
2022-07-30T16:37:57.863Z,29.43
2022-07-30T16:41:00.414Z,29.65
2022-07-30T16:44:02.147Z,28.94
2022-07-30T16:47:03.774Z,30.15
2022-07-30T16:50:05.841Z,29.89
2022-07-30T16:53:11.866Z,30.97
2022-07-30T16:56:16.378Z,29.36
2022-07-30T16:59:19.259Z,29.02
2022-07-30T17:02:20.646Z,30.83
2022-07-30T17:05:22.135Z,29.91
2022-07-30T17:08:24.641Z,28.19
2022-07-30T17:11:46.929Z,29.95
2022-07-30T17:14:48.158Z,29.50
2022-07-30T17:17:49.588Z,29.64
2022-07-30T17:20:52.935Z,30.11
2022-07-30T17:23:54.545Z,31.61
2022-07-30T17:26:56.446Z,30.76
2022-07-30T17:29:58.093Z,31.64
2022-07-30T17:32:59.668Z,30.18
2022-07-30T17:36:01.246Z,29.88
2022-07-30T17:39:03.365Z,29.72
2022-07-30T17:42:04.917Z,29.61
2022-07-30T17:45:07.783Z,29.04
2022-07-30T17:48:09.290Z,30.32
2022-07-30T17:51:10.730Z,30.01
2022-07-30T17:54:12.179Z,28.72
2022-07-30T17:57:15.120Z,29.38
2022-07-30T18:00:17.034Z,28.87
2022-07-30T18:03:18.591Z,30.44
2022-07-30T18:06:22.087Z,29.67
2022-07-30T18:09:24.184Z,28.52
2022-07-30T18:12:25.702Z,29.72
2022-07-30T18:15:28.286Z,29.43
2022-07-30T18:18:29.653Z,31.15
2022-07-30T18:21:31.150Z,32.00
2022-07-30T18:24:33.085Z,31.67
2022-07-30T18:27:34.970Z,33.51
2022-07-30T18:30:36.713Z,29.44
2022-07-30T18:33:38.272Z,32.02
2022-07-30T18:36:39.730Z,32.61
2022-07-30T18:39:41.159Z,34.01
2022-07-30T18:42:42.799Z,34.97
2022-07-30T18:45:45.886Z,37.28
2022-07-30T18:48:48.462Z,35.70
2022-07-30T18:51:50.026Z,35.99
2022-07-30T18:54:51.490Z,35.47
2022-07-30T18:57:52.996Z,37.37
2022-07-30T19:00:54.756Z,41.22
2022-07-30T19:03:56.178Z,38.10
2022-07-30T19:06:57.656Z,40.53
2022-07-30T19:09:59.997Z,39.59
2022-07-30T19:13:02.275Z,39.61
2022-07-30T19:16:04.088Z,39.04
2022-07-30T19:19:05.758Z,39.59
2022-07-30T19:22:07.161Z,38.62
2022-07-30T19:25:11.055Z,39.34
2022-07-30T19:28:13.860Z,40.41
2022-07-30T19:31:16.332Z,43.11
2022-07-30T19:34:17.850Z,41.82
2022-07-30T19:37:20.132Z,41.05
2022-07-30T19:40:21.777Z,43.41
2022-07-30T19:46:46.635Z,45.00
2022-07-30T19:49:50.288Z,45.79
2022-07-30T19:52:54.751Z,45.96
2022-07-30T19:55:56.350Z,45.48
2022-07-30T19:59:00.114Z,46.06
2022-07-30T20:02:01.551Z,45.78
2022-07-30T20:08:25.992Z,49.22
2022-07-30T20:11:35.863Z,50.61
2022-07-30T20:14:37.938Z,50.95
2022-07-30T20:17:46.409Z,48.02
2022-07-30T20:20:48.535Z,51.59
2022-07-30T20:23:52.664Z,49.28
2022-07-30T20:26:54.176Z,50.38
2022-07-30T20:29:56.742Z,54.98
2022-07-30T20:32:58.562Z,49.66
2022-07-30T20:36:00.022Z,52.14
2022-07-30T20:39:01.505Z,50.71
2022-07-30T20:42:09.312Z,52.10
2022-07-30T20:45:12.187Z,53.24
2022-07-30T20:48:17.513Z,53.03
2022-07-30T20:51:33.466Z,50.80
2022-07-30T20:54:36.017Z,52.34
2022-07-30T20:58:00.329Z,55.19
2022-07-30T21:01:07.057Z,54.84
2022-07-30T21:04:09.139Z,55.40
2022-07-30T21:07:10.658Z,56.23
2022-07-30T21:10:12.398Z,58.38
2022-07-30T21:13:16.176Z,59.36
2022-07-30T21:16:17.653Z,57.12
2022-07-30T21:19:19.163Z,59.97
2022-07-30T21:22:24.357Z,62.92
2022-07-30T21:25:32.428Z,66.11
2022-07-30T21:28:36.216Z,61.21
2022-07-30T21:32:00.630Z,64.74
2022-07-30T21:35:01.504Z,64.41
2022-07-30T21:38:10.026Z,66.16
2022-07-30T21:41:14.151Z,65.32
2022-07-30T21:44:17.414Z,67.93
2022-07-30T21:47:18.989Z,67.48
2022-07-30T21:50:20.616Z,65.34
2022-07-30T21:53:29.641Z,68.77
2022-07-30T21:56:45.183Z,70.53
2022-07-30T21:59:46.628Z,68.53
2022-07-30T22:02:53.369Z,71.75
2022-07-30T22:05:56.257Z,73.69
2022-07-30T22:08:57.979Z,75.49
2022-07-30T22:12:00.935Z,77.73
2022-07-30T22:15:04.045Z,75.79
2022-07-30T22:18:06.910Z,77.51
2022-07-30T22:21:08.478Z,76.62
2022-07-30T22:24:10.019Z,70.81
2022-07-30T22:27:40.022Z,76.21
2022-07-30T22:30:52.943Z,76.30
2022-07-30T22:33:55.069Z,77.53
2022-07-30T22:36:59.060Z,81.91
2022-07-30T22:40:00.568Z,85.35
2022-07-30T22:43:07.652Z,79.32
2022-07-30T22:46:30.005Z,83.14
2022-07-30T22:49:49.817Z,75.90
2022-07-30T22:52:58.484Z,76.77
2022-07-30T22:56:15.590Z,75.43
2022-07-30T22:59:17.438Z,81.43
2022-07-30T23:02:42.295Z,84.17
2022-07-30T23:05:55.284Z,79.34
2022-07-30T23:09:00.095Z,89.43
2022-07-30T23:12:01.815Z,82.32
2022-07-30T23:12:15.734Z,47.84
2022-07-30T23:12:16.424Z,41.59
2022-07-30T23:15:05.348Z,79.64
2022-07-30T23:18:06.794Z,85.28
2022-07-30T23:21:08.293Z,84.29
2022-07-30T23:24:10.714Z,82.17
2022-07-30T23:27:12.816Z,82.92
2022-07-30T23:30:14.460Z,87.53
2022-07-30T23:33:18.653Z,88.08
2022-07-30T23:39:21.663Z,86.21
2022-07-30T23:42:23.228Z,84.46
2022-07-30T23:45:24.723Z,88.10
2022-07-30T23:48:26.295Z,87.92
2022-07-30T23:51:33.182Z,86.14
2022-07-30T23:54:35.165Z,85.02
2022-07-30T23:57:37.639Z,89.38
